createdAt,value
2023-03-21T00:00:57.002Z,9.45
2023-03-21T00:03:28.061Z,9.44
2023-03-21T00:05:58.101Z,9.44
2023-03-21T00:08:29.769Z,9.44
2023-03-21T00:11:00.541Z,9.43
2023-03-21T00:13:33.261Z,9.45
2023-03-21T00:16:11.357Z,9.43
2023-03-21T00:18:47.200Z,9.43
2023-03-21T00:21:41.026Z,9.45
2023-03-21T00:24:10.492Z,9.43
2023-03-21T00:26:39.904Z,9.42
2023-03-21T00:29:09.749Z,9.41
2023-03-21T00:31:38.841Z,9.37
2023-03-21T00:36:40.563Z,9.34
2023-03-21T00:39:09.071Z,9.33
2023-03-21T00:41:43.353Z,9.33
2023-03-21T00:44:15.850Z,9.34
2023-03-21T00:47:00.582Z,9.34
2023-03-21T00:49:39.110Z,9.33
2023-03-21T00:52:18.589Z,9.29
2023-03-21T00:54:54.975Z,9.30
2023-03-21T00:57:38.106Z,9.29
2023-03-21T01:00:11.093Z,9.28
2023-03-21T01:02:43.396Z,9.25
2023-03-21T01:05:36.573Z,9.23
2023-03-21T01:08:20.633Z,9.24
2023-03-21T01:10:55.218Z,9.23
2023-03-21T01:13:26.414Z,9.19
2023-03-21T01:15:57.983Z,9.20
2023-03-21T01:18:29.612Z,9.20
2023-03-21T01:21:02.757Z,9.20
2023-03-21T01:23:32.618Z,9.21
2023-03-21T01:26:02.614Z,9.20
2023-03-21T01:28:32.490Z,9.19
2023-03-21T01:31:04.966Z,9.18
2023-03-21T01:33:36.015Z,9.20
2023-03-21T01:36:13.132Z,9.22
2023-03-21T01:38:43.851Z,9.23
2023-03-21T01:41:36.636Z,9.23
2023-03-21T01:44:16.438Z,9.22
2023-03-21T01:47:09.692Z,9.23
2023-03-21T01:49:46.829Z,9.23
2023-03-21T01:52:35.793Z,9.23
2023-03-21T01:55:12.326Z,9.25
2023-03-21T01:58:04.321Z,9.25
2023-03-21T02:00:37.095Z,9.25
2023-03-21T02:03:16.983Z,9.25
2023-03-21T02:05:57.760Z,9.25
2023-03-21T02:08:39.241Z,9.23
2023-03-21T02:11:11.124Z,9.22
2023-03-21T02:13:41.272Z,9.22
2023-03-21T02:16:22.886Z,9.21
2023-03-21T02:19:02.625Z,9.19
2023-03-21T02:22:12.641Z,9.17
2023-03-21T02:25:38.129Z,9.17
2023-03-21T02:28:20.632Z,9.17
2023-03-21T02:31:26.708Z,9.18
2023-03-21T02:34:39.493Z,9.17
2023-03-21T02:37:37.678Z,9.14
2023-03-21T02:40:17.323Z,9.11
2023-03-21T02:43:05.612Z,9.09
2023-03-21T02:45:44.388Z,9.11
2023-03-21T02:48:29.134Z,9.11
2023-03-21T02:51:06.032Z,9.12
2023-03-21T02:53:44.912Z,9.11
2023-03-21T02:56:16.276Z,9.08
2023-03-21T02:58:47.173Z,9.05
2023-03-21T03:01:16.861Z,9.02
2023-03-21T03:03:47.646Z,9.02
2023-03-21T03:06:23.429Z,9.03
2023-03-21T03:09:26.274Z,9.03
2023-03-21T03:12:08.477Z,9.03
2023-03-21T03:15:03.131Z,9.02
2023-03-21T03:18:03.093Z,9.03
2023-03-21T03:20:47.704Z,9.01
2023-03-21T03:23:31.778Z,8.99
2023-03-21T03:26:08.643Z,8.94
2023-03-21T03:28:43.593Z,8.91
2023-03-21T03:31:17.162Z,8.91
2023-03-21T03:33:54.391Z,8.92
2023-03-21T03:36:32.499Z,8.91
2023-03-21T03:39:06.751Z,8.87
2023-03-21T03:42:12.639Z,8.85
2023-03-21T03:44:37.170Z,8.84
2023-03-21T03:47:15.208Z,8.82
2023-03-21T03:49:57.556Z,8.79
2023-03-21T03:52:32.784Z,8.80
2023-03-21T03:55:03.833Z,8.78
2023-03-21T03:57:35.632Z,8.76
2023-03-21T04:00:08.972Z,8.71
2023-03-21T04:02:38.563Z,8.70
2023-03-21T04:05:09.968Z,8.67
2023-03-21T04:07:40.009Z,8.62
2023-03-21T04:10:13.287Z,8.56
2023-03-21T04:12:44.819Z,8.53
2023-03-21T04:15:15.002Z,8.48
2023-03-21T04:17:45.946Z,8.46
2023-03-21T04:20:26.766Z,8.44
2023-03-21T04:23:06.113Z,8.42
2023-03-21T04:25:38.730Z,8.36
2023-03-21T04:28:11.515Z,8.36
2023-03-21T04:30:54.995Z,8.32
2023-03-21T04:33:30.586Z,8.27
2023-03-21T04:36:00.395Z,8.24
2023-03-21T04:38:31.398Z,8.19
2023-03-21T04:41:00.878Z,8.19
2023-03-21T04:43:32.696Z,8.20
2023-03-21T04:46:03.149Z,8.19
2023-03-21T04:48:33.828Z,8.19
2023-03-21T04:51:03.466Z,8.20
2023-03-21T04:53:33.703Z,8.18
2023-03-21T04:56:04.363Z,8.16
2023-03-21T04:58:34.994Z,8.15
2023-03-21T05:01:06.623Z,8.18
2023-03-21T05:03:40.594Z,8.19
2023-03-21T05:06:11.855Z,8.19
2023-03-21T05:08:42.575Z,8.20
2023-03-21T05:11:11.878Z,8.20
2023-03-21T05:13:42.944Z,8.17
2023-03-21T05:16:13.048Z,8.18
2023-03-21T05:18:43.152Z,8.19
2023-03-21T05:21:13.516Z,8.19
2023-03-21T05:23:44.512Z,8.20
2023-03-21T05:26:14.259Z,8.19
2023-03-21T05:28:44.718Z,8.16
2023-03-21T05:31:17.278Z,8.19
2023-03-21T05:33:47.582Z,8.18
2023-03-21T05:36:18.117Z,8.17
2023-03-21T05:38:46.727Z,8.18
2023-03-21T05:41:19.121Z,8.15
2023-03-21T05:43:50.402Z,8.15
2023-03-21T05:46:21.820Z,8.17
2023-03-21T05:48:52.751Z,8.16
2023-03-21T05:51:23.713Z,8.15
2023-03-21T05:53:53.266Z,8.20
2023-03-21T05:56:23.814Z,8.20
2023-03-21T05:58:55.443Z,8.24
2023-03-21T06:01:25.541Z,8.25
2023-03-21T06:03:54.243Z,8.24
2023-03-21T06:06:24.551Z,8.28
2023-03-21T06:08:54.717Z,8.31
2023-03-21T06:11:29.141Z,8.33
2023-03-21T06:13:59.634Z,8.35
2023-03-21T06:16:30.184Z,8.35
2023-03-21T06:19:00.034Z,8.37
2023-03-21T06:21:30.126Z,8.38
2023-03-21T06:23:59.054Z,8.40
2023-03-21T06:26:28.173Z,8.43
2023-03-21T06:29:00.920Z,8.45
2023-03-21T06:31:31.321Z,8.47
2023-03-21T06:34:01.500Z,8.51
2023-03-21T06:36:32.358Z,8.54
2023-03-21T06:39:03.590Z,8.56
2023-03-21T06:41:32.685Z,8.61
2023-03-21T06:44:04.193Z,8.61
2023-03-21T06:46:34.213Z,8.62
2023-03-21T06:49:04.799Z,8.59
2023-03-21T06:51:35.223Z,8.61
2023-03-21T06:54:06.298Z,8.68
2023-03-21T06:56:35.904Z,8.69
2023-03-21T06:59:07.286Z,8.69
2023-03-21T07:01:36.939Z,8.75
2023-03-21T07:04:06.719Z,8.78
2023-03-21T07:06:36.739Z,8.77
2023-03-21T07:09:07.216Z,8.80
2023-03-21T07:11:38.579Z,8.82
2023-03-21T07:14:08.895Z,8.84
2023-03-21T07:16:39.614Z,8.85
2023-03-21T07:19:09.915Z,8.87
2023-03-21T07:21:40.554Z,8.88
2023-03-21T07:24:10.947Z,8.86
2023-03-21T07:26:42.279Z,8.86
2023-03-21T07:29:14.261Z,8.89
2023-03-21T07:31:44.811Z,8.92
2023-03-21T07:34:16.476Z,8.95
2023-03-21T07:36:46.196Z,8.98
2023-03-21T07:39:16.209Z,9.01
2023-03-21T07:41:45.686Z,9.05
2023-03-21T07:44:16.851Z,9.07
2023-03-21T07:46:47.834Z,9.10
2023-03-21T07:49:17.941Z,9.10
2023-03-21T07:51:47.550Z,9.13
2023-03-21T07:54:19.999Z,9.15
2023-03-21T07:56:50.503Z,9.20
2023-03-21T07:59:21.152Z,9.22
2023-03-21T08:01:50.042Z,9.25
2023-03-21T08:04:19.772Z,9.28
2023-03-21T08:06:49.166Z,9.32
2023-03-21T08:09:20.402Z,9.34
2023-03-21T08:11:50.440Z,9.37
2023-03-21T08:14:21.536Z,9.42
2023-03-21T08:16:50.394Z,9.45
2023-03-21T08:19:22.324Z,9.47
2023-03-21T08:21:53.731Z,9.50
2023-03-21T08:24:24.468Z,9.49
2023-03-21T08:26:55.618Z,9.54
2023-03-21T08:29:26.681Z,9.58
2023-03-21T08:31:58.715Z,9.57
2023-03-21T08:34:29.255Z,9.55
2023-03-21T08:36:59.367Z,9.58
2023-03-21T08:39:28.974Z,9.60
2023-03-21T08:41:59.553Z,9.64
2023-03-21T08:44:30.449Z,9.65
2023-03-21T08:46:59.934Z,9.71
2023-03-21T08:49:31.560Z,9.72
2023-03-21T08:52:01.605Z,9.76
2023-03-21T08:54:31.310Z,9.79
2023-03-21T08:57:01.035Z,9.80
2023-03-21T08:59:31.550Z,9.82
2023-03-21T09:02:01.587Z,9.84
2023-03-21T09:04:32.001Z,9.86
2023-03-21T09:07:04.993Z,9.86
2023-03-21T09:09:34.421Z,9.90
2023-03-21T09:12:03.983Z,9.89
2023-03-21T09:14:35.931Z,9.91
2023-03-21T09:17:06.182Z,9.92
2023-03-21T09:19:36.015Z,9.95
2023-03-21T09:22:06.053Z,9.97
2023-03-21T09:24:36.616Z,9.99
2023-03-21T09:27:06.476Z,10.01
2023-03-21T09:29:37.133Z,10.05
2023-03-21T09:32:07.018Z,10.05
2023-03-21T09:34:37.052Z,10.07
2023-03-21T09:37:10.964Z,10.09
2023-03-21T09:39:42.922Z,10.13
2023-03-21T09:42:26.106Z,10.16
2023-03-21T09:45:16.285Z,10.21
2023-03-21T09:47:53.538Z,10.25
2023-03-21T09:50:31.694Z,10.27
2023-03-21T09:53:08.117Z,10.33
2023-03-21T09:55:41.576Z,10.39
2023-03-21T09:58:32.369Z,10.45
2023-03-21T10:01:27.256Z,10.50
2023-03-21T10:04:01.187Z,10.55
2023-03-21T10:06:32.815Z,10.56
2023-03-21T10:09:10.041Z,10.54
2023-03-21T10:11:49.340Z,10.56
2023-03-21T10:14:23.047Z,10.57
2023-03-21T10:16:59.636Z,10.65
2023-03-21T10:19:31.444Z,10.68
2023-03-21T10:22:02.748Z,10.66
2023-03-21T10:24:37.162Z,10.64
2023-03-21T10:27:07.146Z,10.66
2023-03-21T10:29:44.275Z,10.72
2023-03-21T10:32:19.991Z,10.70
2023-03-21T10:37:27.011Z,10.79
2023-03-21T10:39:58.132Z,10.87
2023-03-21T10:42:32.949Z,10.88
2023-03-21T10:45:02.415Z,10.94
2023-03-21T10:47:36.077Z,10.96
2023-03-21T10:50:10.364Z,11.01
2023-03-21T10:52:48.171Z,11.07
2023-03-21T10:55:29.759Z,11.09
2023-03-21T10:58:03.631Z,11.09
2023-03-21T11:00:41.945Z,11.13
2023-03-21T11:03:25.198Z,11.14
2023-03-21T11:05:58.520Z,11.17
2023-03-21T11:08:29.102Z,11.13
2023-03-21T11:11:05.595Z,11.16
2023-03-21T11:13:42.210Z,11.14
2023-03-21T11:16:14.415Z,11.16
2023-03-21T11:18:51.455Z,11.16
2023-03-21T11:21:22.237Z,11.21
2023-03-21T11:23:52.983Z,11.25
2023-03-21T11:26:29.596Z,11.28
2023-03-21T11:28:59.446Z,11.27
2023-03-21T11:31:41.768Z,11.34
2023-03-21T11:34:29.660Z,11.38
2023-03-21T11:37:04.001Z,11.39
2023-03-21T11:39:41.799Z,11.37
2023-03-21T11:42:31.312Z,11.34
2023-03-21T11:45:08.177Z,11.35
2023-03-21T11:47:38.600Z,11.29
2023-03-21T11:50:28.127Z,11.32
2023-03-21T11:53:28.035Z,11.37
2023-03-21T11:56:13.460Z,11.41
2023-03-21T11:59:07.004Z,11.42
2023-03-21T12:01:52.472Z,11.43
2023-03-21T12:04:43.043Z,11.45
2023-03-21T12:07:40.279Z,11.48
2023-03-21T12:10:35.151Z,11.52
2023-03-21T12:13:31.303Z,11.53
2023-03-21T12:16:21.669Z,11.59
2023-03-21T12:19:21.749Z,11.63
2023-03-21T12:22:06.423Z,11.63
2023-03-21T12:24:49.787Z,11.67
2023-03-21T12:27:37.651Z,11.63
2023-03-21T12:30:46.333Z,11.65
2023-03-21T12:33:33.521Z,11.66
2023-03-21T12:36:37.094Z,11.59
2023-03-21T12:39:26.819Z,11.58
2023-03-21T12:42:20.640Z,11.63
2023-03-21T12:45:00.634Z,11.65
2023-03-21T12:47:35.672Z,11.68
2023-03-21T12:50:17.209Z,11.69
2023-03-21T12:52:53.342Z,11.69
2023-03-21T12:55:28.365Z,11.69
2023-03-21T12:58:08.598Z,11.73
2023-03-21T13:00:45.630Z,11.72
2023-03-21T13:03:27.658Z,11.74
2023-03-21T13:06:06.968Z,11.73
2023-03-21T13:08:43.082Z,11.70
2023-03-21T13:11:19.261Z,11.71
2023-03-21T13:13:59.980Z,11.70
2023-03-21T13:16:35.230Z,11.71
2023-03-21T13:19:22.504Z,11.76
2023-03-21T13:22:04.517Z,11.82
2023-03-21T13:24:43.803Z,11.89
2023-03-21T13:27:27.576Z,11.94
2023-03-21T13:30:06.570Z,11.92
2023-03-21T13:32:39.721Z,11.90
2023-03-21T13:35:21.902Z,11.91
2023-03-21T13:37:58.699Z,11.98
2023-03-21T13:40:36.789Z,12.02
2023-03-21T13:43:07.221Z,12.07
2023-03-21T13:45:54.348Z,12.11
2023-03-21T13:48:31.895Z,12.14
2023-03-21T13:51:04.726Z,12.19
2023-03-21T13:53:36.100Z,12.15
2023-03-21T13:56:25.693Z,12.20
2023-03-21T13:59:02.032Z,12.28
2023-03-21T14:01:43.117Z,12.34
2023-03-21T14:04:20.147Z,12.28
2023-03-21T14:06:58.577Z,12.29
2023-03-21T14:09:34.475Z,12.35
2023-03-21T14:12:07.806Z,12.31
2023-03-21T14:14:44.363Z,12.38
2023-03-21T14:17:17.620Z,12.37
2023-03-21T14:19:48.737Z,12.40
2023-03-21T14:22:19.041Z,12.30
2023-03-21T14:24:50.912Z,12.24
2023-03-21T14:27:22.092Z,12.24
2023-03-21T14:29:53.451Z,12.27
2023-03-21T14:32:28.283Z,12.31
2023-03-21T14:34:58.975Z,12.26
2023-03-21T14:37:32.170Z,12.24
2023-03-21T14:40:08.735Z,12.31
2023-03-21T14:42:38.996Z,12.35
2023-03-21T14:45:21.068Z,12.38
2023-03-21T14:47:59.780Z,12.38
2023-03-21T14:50:37.705Z,12.43
2023-03-21T14:53:08.234Z,12.46
2023-03-21T14:55:45.987Z,12.48
2023-03-21T14:58:19.147Z,12.54
2023-03-21T15:00:53.509Z,12.56
2023-03-21T15:03:28.082Z,12.58
2023-03-21T15:05:59.060Z,12.50
2023-03-21T15:08:29.996Z,12.51
2023-03-21T15:11:07.313Z,12.55
2023-03-21T15:13:46.666Z,12.53
2023-03-21T15:16:16.444Z,12.60
2023-03-21T15:18:48.935Z,12.63
2023-03-21T15:21:24.253Z,12.71
2023-03-21T15:24:00.132Z,12.71
2023-03-21T15:26:32.700Z,12.75
2023-03-21T15:29:04.584Z,12.75
2023-03-21T15:31:38.567Z,12.73
2023-03-21T15:34:18.434Z,12.79
2023-03-21T15:36:50.985Z,12.81
2023-03-21T15:39:24.372Z,12.80
2023-03-21T15:42:03.502Z,12.83
2023-03-21T15:44:34.169Z,12.83
2023-03-21T15:47:03.816Z,12.85
2023-03-21T15:49:41.240Z,12.89
2023-03-21T15:52:16.266Z,12.94
2023-03-21T15:54:50.937Z,12.97
2023-03-21T15:57:25.355Z,12.98
2023-03-21T16:00:11.047Z,12.98
2023-03-21T16:02:43.714Z,12.98
2023-03-21T16:05:29.431Z,13.01
2023-03-21T16:08:07.966Z,13.01
2023-03-21T16:10:41.233Z,12.99
2023-03-21T16:13:15.378Z,13.04
2023-03-21T16:15:44.494Z,13.02
2023-03-21T16:18:17.743Z,13.04
2023-03-21T16:20:49.241Z,13.02
2023-03-21T16:23:19.162Z,13.03
2023-03-21T16:25:55.838Z,13.03
2023-03-21T16:28:25.544Z,13.02
2023-03-21T16:30:54.893Z,12.99
2023-03-21T16:33:25.461Z,12.99
2023-03-21T16:35:58.034Z,12.98
2023-03-21T16:38:27.540Z,12.97
2023-03-21T16:40:57.441Z,12.97
2023-03-21T16:43:26.939Z,12.97
2023-03-21T16:45:57.121Z,12.95
2023-03-21T16:48:27.873Z,12.96
2023-03-21T16:50:58.802Z,12.95
2023-03-21T16:53:28.562Z,12.94
2023-03-21T16:56:03.098Z,12.92
2023-03-21T16:58:33.020Z,12.90
2023-03-21T17:01:03.542Z,12.89
2023-03-21T17:03:34.900Z,12.86
2023-03-21T17:06:07.343Z,12.83
2023-03-21T17:08:37.334Z,12.79
2023-03-21T17:11:10.439Z,12.77
2023-03-21T17:13:40.237Z,12.72
2023-03-21T17:16:13.972Z,12.64
2023-03-21T17:18:44.313Z,12.63
2023-03-21T17:21:18.520Z,12.58
2023-03-21T17:23:47.638Z,12.51
2023-03-21T17:26:20.915Z,12.48
2023-03-21T17:28:51.311Z,12.44
2023-03-21T17:31:24.093Z,12.39
2023-03-21T17:33:53.704Z,12.35
2023-03-21T17:36:32.331Z,12.30
2023-03-21T17:39:02.907Z,12.26
2023-03-21T17:41:32.504Z,12.21
2023-03-21T17:44:01.967Z,12.18
2023-03-21T17:46:36.763Z,12.15
2023-03-21T17:49:06.892Z,12.09
2023-03-21T17:51:37.237Z,12.06
2023-03-21T17:54:06.665Z,12.01
2023-03-21T17:56:38.480Z,11.98
2023-03-21T17:59:12.156Z,11.94
2023-03-21T18:01:41.978Z,11.91
2023-03-21T18:04:11.618Z,11.87
2023-03-21T18:06:43.032Z,11.84
2023-03-21T18:09:14.083Z,11.78
2023-03-21T18:11:43.566Z,11.75
2023-03-21T18:14:18.026Z,11.73
2023-03-21T18:16:48.107Z,11.72
2023-03-21T18:19:17.377Z,11.68
2023-03-21T18:21:48.238Z,11.66
2023-03-21T18:24:17.847Z,11.60
2023-03-21T18:26:47.372Z,11.55
2023-03-21T18:30:14.732Z,11.52
2023-03-21T18:32:08.952Z,11.50
2023-03-21T18:34:40.457Z,11.42
2023-03-21T18:37:13.472Z,11.37
2023-03-21T18:39:45.351Z,11.32
2023-03-21T18:42:18.764Z,11.25
2023-03-21T18:44:51.828Z,11.17
2023-03-21T18:47:21.118Z,11.14
2023-03-21T18:50:14.175Z,11.10
2023-03-21T18:52:42.667Z,11.03
2023-03-21T18:55:14.656Z,10.98
2023-03-21T18:57:45.481Z,10.96
2023-03-21T19:00:22.290Z,10.90
2023-03-21T19:03:04.232Z,10.86
2023-03-21T19:05:41.597Z,10.77
2023-03-21T19:08:12.647Z,10.71
2023-03-21T19:10:42.279Z,10.68
2023-03-21T19:13:11.992Z,10.64
2023-03-21T19:15:42.155Z,10.60
2023-03-21T19:18:37.618Z,10.51
2023-03-21T19:21:03.427Z,10.47
2023-03-21T19:24:03.808Z,10.44
2023-03-21T19:26:24.551Z,10.41
2023-03-21T19:28:54.760Z,10.39
2023-03-21T19:31:26.844Z,10.31
2023-03-21T19:33:56.836Z,10.25
2023-03-21T19:36:27.539Z,10.21
2023-03-21T19:38:58.368Z,10.18
2023-03-21T19:41:27.804Z,10.12
2023-03-21T19:43:57.213Z,10.08
2023-03-21T19:46:27.127Z,10.05
2023-03-21T19:48:57.266Z,10.02
2023-03-21T19:51:30.025Z,10.00
2023-03-21T19:54:04.116Z,9.92
2023-03-21T19:56:34.816Z,9.84
2023-03-21T19:59:04.374Z,9.80
2023-03-21T20:01:33.312Z,9.75
2023-03-21T20:04:02.823Z,9.70
2023-03-21T20:06:32.534Z,9.66
2023-03-21T20:09:47.294Z,9.63
2023-03-21T20:11:53.805Z,9.56
2023-03-21T20:14:25.412Z,9.56
2023-03-21T20:16:57.105Z,9.51
2023-03-21T20:19:26.274Z,9.50
2023-03-21T20:21:59.792Z,9.47
2023-03-21T20:24:31.528Z,9.41
2023-03-21T20:27:02.034Z,9.39
2023-03-21T20:30:08.035Z,9.35
2023-03-21T20:32:21.594Z,9.28
2023-03-21T20:34:59.471Z,9.25
2023-03-21T20:37:35.144Z,9.22
2023-03-21T20:40:10.186Z,9.16
2023-03-21T20:42:40.159Z,9.12
2023-03-21T20:45:13.635Z,9.10
2023-03-21T20:47:44.923Z,9.07
2023-03-21T20:50:22.022Z,9.04
2023-03-21T20:53:05.904Z,8.99
2023-03-21T20:55:38.284Z,9.00
2023-03-21T20:58:30.017Z,9.00
2023-03-21T21:01:03.847Z,9.02
2023-03-21T21:03:38.805Z,9.01
2023-03-21T21:06:17.327Z,9.04
2023-03-21T21:08:47.434Z,8.99
2023-03-21T21:12:03.050Z,8.93
2023-03-21T21:14:09.330Z,8.94
2023-03-21T21:16:39.525Z,8.95
2023-03-21T21:19:08.436Z,8.94
2023-03-21T21:21:38.080Z,8.92
2023-03-21T21:24:08.669Z,8.92
2023-03-21T21:26:40.755Z,8.90
2023-03-21T21:29:11.638Z,8.88
2023-03-21T21:31:41.746Z,8.88
2023-03-21T21:34:11.865Z,8.84
2023-03-21T21:36:41.805Z,8.82
2023-03-21T21:39:11.157Z,8.81
2023-03-21T21:41:41.307Z,8.76
2023-03-21T21:44:11.622Z,8.76
2023-03-21T21:46:42.935Z,8.72
2023-03-21T21:49:11.936Z,8.67
2023-03-21T21:51:41.917Z,8.67
2023-03-21T21:54:18.135Z,8.66
2023-03-21T21:56:54.097Z,8.59
2023-03-21T21:59:25.115Z,8.58
2023-03-21T22:01:54.707Z,8.55
2023-03-21T22:04:28.281Z,8.47
2023-03-21T22:06:57.648Z,8.46
2023-03-21T22:09:28.127Z,8.46
2023-03-21T22:11:58.515Z,8.41
2023-03-21T22:14:28.624Z,8.42
2023-03-21T22:16:59.908Z,8.34
2023-03-21T22:19:29.712Z,8.35
2023-03-21T22:21:59.748Z,8.34
2023-03-21T22:24:29.794Z,8.33
2023-03-21T22:27:00.678Z,8.33
2023-03-21T22:29:30.692Z,8.30
2023-03-21T22:32:00.555Z,8.29
2023-03-21T22:34:29.577Z,8.30
2023-03-21T22:37:00.607Z,8.29
2023-03-21T22:39:29.991Z,8.27
2023-03-21T22:42:03.455Z,8.28
2023-03-21T22:44:36.187Z,8.27
2023-03-21T22:47:08.000Z,8.21
2023-03-21T22:49:37.138Z,8.19
2023-03-21T22:52:07.855Z,8.18
2023-03-21T22:54:37.635Z,8.16
2023-03-21T22:57:09.767Z,8.14
2023-03-21T22:59:39.907Z,8.12
2023-03-21T23:02:09.526Z,8.12
2023-03-21T23:04:38.882Z,8.07
2023-03-21T23:07:07.679Z,8.02
2023-03-21T23:09:36.984Z,8.00
2023-03-21T23:12:10.229Z,7.99
2023-03-21T23:14:39.275Z,7.96
2023-03-21T23:17:10.744Z,7.92
2023-03-21T23:19:41.304Z,7.85
2023-03-21T23:22:10.956Z,7.83
2023-03-21T23:24:41.236Z,7.83
2023-03-21T23:27:11.924Z,7.83
2023-03-21T23:29:41.435Z,7.77
2023-03-21T23:32:12.266Z,7.74
2023-03-21T23:34:42.131Z,7.74
2023-03-21T23:37:11.826Z,7.71
2023-03-21T23:39:41.796Z,7.69
2023-03-21T23:42:12.191Z,7.67
2023-03-21T23:44:41.580Z,7.60
2023-03-21T23:47:11.611Z,7.56
2023-03-21T23:49:41.477Z,7.54
2023-03-21T23:52:11.997Z,7.53
2023-03-21T23:54:41.463Z,7.54
2023-03-21T23:57:12.679Z,7.53
2023-03-21T23:59:43.422Z,7.51
